Time;durP1;ratioP1;P1;durP2;ratioP2;P2;SDS_P1;SDS_P2;PMS_P1;PMS_P2;Temp;Humidity;BMP_temperature;BMP_pressure;BME280_temperature;BME280_humidity;BME280_pressure;Samples;Min_cycle;Max_cycle;Signal;HPM_P1;HPM_P2
2023/05/22 00:02:06;;;;;;;8.60;5.70;;;;;;;21.44;33.78;100474.30;108021;1254;62682;-68
2023/05/22 00:04:34;;;;;;;9.90;5.50;;;;;;;21.56;33.69;100472.61;108061;1254;75200;-68
2023/05/22 00:07:00;;;;;;;8.00;5.10;;;;;;;21.48;33.77;100471.43;108048;1254;72547;-69
2023/05/22 00:09:27;;;;;;;8.90;6.00;;;;;;;21.48;33.86;100474.65;107982;1254;74561;-69
2023/05/22 00:11:55;;;;;;;9.40;5.50;;;;;;;21.29;33.96;100471.87;107996;1254;62509;-69
2023/05/22 00:14:22;;;;;;;10.60;6.30;;;;;;;21.15;34.03;100466.77;107996;1256;62249;-69
2023/05/22 00:16:49;;;;;;;8.70;5.60;;;;;;;20.96;34.28;100475.73;107990;1253;74022;-68
2023/05/22 00:19:17;;;;;;;9.00;5.60;;;;;;;21.04;34.30;100470.34;108031;1259;70878;-69
2023/05/22 00:21:46;;;;;;;8.80;5.60;;;;;;;20.93;34.41;100471.70;107979;1254;73518;-68
2023/05/22 00:24:13;;;;;;;8.70;5.40;;;;;;;20.92;34.58;100471.08;107969;1255;61172;-68
2023/05/22 00:26:40;;;;;;;9.30;5.60;;;;;;;20.97;34.40;100468.02;107992;1253;60383;-69
2023/05/22 00:29:07;;;;;;;7.20;5.40;;;;;;;21.01;34.21;100462.89;108034;1253;75572;-68
2023/05/22 00:31:34;;;;;;;13.60;6.10;;;;;;;20.95;34.46;100464.42;108013;1253;71502;-68
2023/05/22 00:34:00;;;;;;;12.20;5.80;;;;;;;21.05;34.24;100461.01;108007;1255;73887;-68
2023/05/22 00:36:27;;;;;;;8.50;5.20;;;;;;;20.94;34.35;100465.73;108010;1253;62279;-68
2023/05/22 00:38:55;;;;;;;8.70;5.30;;;;;;;21.02;34.20;100462.94;108052;1258;60569;-69
2023/05/22 00:41:21;;;;;;;9.30;5.70;;;;;;;20.99;34.31;100461.05;108086;1253;73116;-69
2023/05/22 00:43:50;;;;;;;7.90;5.10;;;;;;;21.05;34.11;100458.27;108006;1253;70767;-68
2023/05/22 00:46:20;;;;;;;9.40;5.70;;;;;;;20.90;34.35;100460.88;108047;1253;74649;-69
2023/05/22 00:48:47;;;;;;;6.50;4.90;;;;;;;21.01;34.22;100459.67;107974;1253;63413;-68
2023/05/22 00:51:14;;;;;;;8.30;5.10;;;;;;;21.04;34.25;100455.52;108013;1253;62720;-68
2023/05/22 00:53:42;;;;;;;7.80;5.60;;;;;;;20.81;34.62;100460.45;108041;1253;74826;-68
2023/05/22 00:56:09;;;;;;;8.20;5.10;;;;;;;20.69;34.78;100459.38;107842;1257;70663;-68
2023/05/22 00:58:36;;;;;;;7.90;5.20;;;;;;;20.69;34.81;100458.14;107946;1253;73144;-68
2023/05/22 01:01:05;;;;;;;11.60;5.80;;;;;;;20.84;34.38;100452.75;108017;1252;62831;-68
2023/05/22 01:03:34;;;;;;;8.40;5.70;;;;;;;20.95;34.33;100454.37;107831;1260;61184;-69
2023/05/22 01:06:01;;;;;;;13.50;5.70;;;;;;;20.67;34.56;100459.31;107999;1254;75531;-68
2023/05/22 01:08:28;;;;;;;10.10;5.40;;;;;;;20.52;34.81;100457.21;108107;1252;72218;-68
2023/05/22 01:11:21;;;;;;;10.10;5.60;;;;;;;20.41;35.20;100452.84;108062;1253;73397;-68
2023/05/22 01:13:59;;;;;;;9.30;5.60;;;;;;;20.10;35.66;100454.02;107815;1254;61759;-68
2023/05/22 01:16:49;;;;;;;10.10;5.40;;;;;;;20.04;35.77;100451.20;108134;1252;62409;-68
2023/05/22 01:19:52;;;;;;;8.20;5.20;;;;;;;20.46;35.04;100449.08;108088;1252;75851;-68
2023/05/22 01:22:34;;;;;;;10.10;5.20;;;;;;;20.23;35.41;100446.13;108077;1253;71538;-69
2023/05/22 01:25:15;;;;;;;;;;;;;;;20.61;34.89;100446.95;108061;1253;72950;-69
2023/05/22 01:28:06;;;;;;;8.80;5.00;;;;;;;20.65;34.73;100445.02;107979;1252;63589;-68
2023/05/22 01:30:44;;;;;;;7.70;5.40;;;;;;;20.58;34.90;100445.69;107998;1260;60326;-68
2023/05/22 01:33:13;;;;;;;7.40;5.20;;;;;;;20.42;35.03;100442.64;108118;1253;75895;-68
2023/05/22 01:35:40;;;;;;;9.70;5.90;;;;;;;20.63;34.67;100443.39;107995;1252;72219;-68
2023/05/22 01:38:07;;;;;;;9.80;5.50;;;;;;;20.40;34.97;100447.41;108061;1255;74219;-69
2023/05/22 01:40:35;;;;;;;8.30;5.10;;;;;;;20.37;35.06;100443.11;107966;1253;63421;-68
2023/05/22 01:43:03;;;;;;;7.20;4.90;;;;;;;20.56;35.03;100444.11;108053;1253;60306;-69
2023/05/22 01:45:30;;;;;;;11.40;5.20;;;;;;;20.55;35.01;100440.39;108169;1253;73967;-68
2023/05/22 01:47:57;;;;;;;8.90;5.20;;;;;;;20.38;35.30;100440.37;108100;1252;71369;-68
2023/05/22 01:50:25;;;;;;;8.60;5.20;;;;;;;20.76;34.76;100434.39;108089;1253;72787;-68
2023/05/22 01:53:07;;;;;;;6.60;5.00;;;;;;;20.54;34.89;100435.85;108151;1253;62582;-69
2023/05/22 01:55:59;;;;;;;11.10;5.60;;;;;;;20.64;34.96;100437.44;108057;1252;60302;-69
2023/05/22 01:59:00;;;;;;;7.90;5.20;;;;;;;20.91;34.48;100434.92;108008;1259;73993;-69
2023/05/22 02:01:27;;;;;;;;;;;;;;;20.86;34.42;100426.34;108043;1253;72650;-68
2023/05/22 02:03:57;;;;;;;9.50;4.60;;;;;;;20.90;34.50;100427.80;108003;1253;72797;-68
2023/05/22 02:06:27;;;;;;;7.30;5.10;;;;;;;20.90;34.53;100431.05;108050;1254;62140;-68
2023/05/22 02:08:54;;;;;;;7.00;4.90;;;;;;;21.06;34.36;100433.04;108042;1253;62426;-67
2023/05/22 02:11:21;;;;;;;8.90;5.50;;;;;;;20.96;34.54;100431.30;108018;1253;75232;-65
2023/05/22 02:13:48;;;;;;;9.20;5.30;;;;;;;20.91;34.50;100430.63;108206;1252;71518;-66
2023/05/22 02:16:18;;;;;;;9.10;5.00;;;;;;;20.90;34.55;100427.84;108077;1253;73054;-66
2023/05/22 02:18:45;;;;;;;7.60;5.50;;;;;;;20.89;34.76;100429.48;108070;1253;61121;-66
2023/05/22 02:21:12;;;;;;;7.30;5.10;;;;;;;20.95;34.44;100426.91;107973;1253;61318;-66
2023/05/22 02:23:39;;;;;;;8.60;5.60;;;;;;;21.00;34.60;100431.39;108082;1253;76215;-65
2023/05/22 02:26:07;;;;;;;14.80;6.10;;;;;;;20.95;34.51;100432.30;108129;1253;69631;-68
2023/05/22 02:28:34;;;;;;;7.40;5.50;;;;;;;20.80;34.67;100432.90;108007;1253;74127;-67
2023/05/22 02:31:02;;;;;;;9.70;5.90;;;;;;;20.99;34.57;100431.80;108078;1258;62720;-66
2023/05/22 02:33:29;;;;;;;12.40;6.00;;;;;;;20.76;34.85;100432.18;107999;1253;61053;-67
2023/05/22 02:35:56;;;;;;;9.50;6.30;;;;;;;20.44;35.44;100432.50;108032;1258;72627;-66
2023/05/22 02:38:23;;;;;;;8.40;5.60;;;;;;;20.65;35.17;100431.65;108062;1253;71576;-64
2023/05/22 02:40:50;;;;;;;10.90;5.60;;;;;;;20.46;35.36;100432.46;107974;1255;74959;-65
2023/05/22 02:43:17;;;;;;;9.20;6.00;;;;;;;20.44;35.51;100429.41;107985;1255;64049;-66
2023/05/22 02:45:44;;;;;;;8.00;5.50;;;;;;;20.55;35.42;100428.98;108068;1253;62642;-64
2023/05/22 02:48:11;;;;;;;8.20;5.30;;;;;;;20.70;35.33;100429.50;108129;1253;75942;-65
2023/05/22 02:50:39;;;;;;;11.30;5.80;;;;;;;20.95;35.01;100427.48;108086;1253;72517;-66
2023/05/22 02:53:07;;;;;;;8.10;4.80;;;;;;;20.80;35.26;100430.17;108010;1255;73073;-66
2023/05/22 02:55:34;;;;;;;13.30;5.90;;;;;;;20.94;35.16;100425.17;108209;1256;64192;-67
2023/05/22 02:58:02;;;;;;;11.30;5.80;;;;;;;21.08;35.21;100429.48;108032;1253;61724;-66
2023/05/22 03:00:29;;;;;;;7.50;5.50;;;;;;;21.41;34.92;100430.23;107951;1253;73985;-65
2023/05/22 03:02:56;;;;;;;13.10;5.60;;;;;;;21.90;34.27;100431.89;107779;1253;71773;-65
2023/05/22 03:05:23;;;;;;;10.50;6.00;;;;;;;22.17;33.79;100435.69;107923;1256;73696;-67
2023/05/22 03:07:51;;;;;;;6.20;4.90;;;;;;;22.27;33.63;100437.39;108041;1253;64332;-66
2023/05/22 03:10:18;;;;;;;9.30;5.50;;;;;;;22.31;33.73;100439.18;107954;1253;60522;-67
2023/05/22 03:12:45;;;;;;;12.20;5.70;;;;;;;22.42;33.56;100442.77;108104;1253;75893;-66
2023/05/22 03:15:12;;;;;;;7.30;5.00;;;;;;;22.56;33.43;100440.76;108005;1253;71294;-67
2023/05/22 03:17:39;;;;;;;9.90;5.50;;;;;;;22.65;33.40;100442.63;107998;1253;73365;-67
2023/05/22 03:20:07;;;;;;;7.60;5.20;;;;;;;22.73;33.27;100440.20;107947;1253;63783;-66
2023/05/22 03:22:36;;;;;;;9.50;5.10;;;;;;;23.32;32.79;100432.73;107992;1253;60342;-67
2023/05/22 03:25:05;;;;;;;8.90;4.60;;;;;;;23.85;31.77;100431.73;107887;1253;74806;-67
2023/05/22 03:27:32;;;;;;;8.20;5.20;;;;;;;24.18;31.35;100432.79;107925;1253;72739;-67
2023/05/22 03:30:04;;;;;;;10.20;5.70;;;;;;;24.34;31.06;100435.90;108076;1253;73361;-66
2023/05/22 03:32:36;;;;;;;10.90;5.20;;;;;;;24.47;30.65;100433.13;107988;1253;62311;-67
2023/05/22 03:35:04;;;;;;;10.40;5.20;;;;;;;24.87;30.29;100430.89;108100;1253;62674;-66
2023/05/22 03:37:31;;;;;;;9.60;4.60;;;;;;;25.08;29.91;100432.89;108100;1253;75884;-67
2023/05/22 03:39:58;;;;;;;9.30;5.00;;;;;;;25.60;29.09;100430.16;108021;1253;70959;-67
2023/05/22 03:42:28;;;;;;;10.40;5.50;;;;;;;26.10;28.55;100431.28;108073;1253;74929;-66
2023/05/22 03:44:55;;;;;;;11.90;4.90;;;;;;;26.55;27.70;100426.33;108036;1253;60329;-66
2023/05/22 03:47:23;;;;;;;10.70;4.20;;;;;;;26.93;27.02;100426.13;107997;1253;62680;-67
2023/05/22 03:49:50;;;;;;;11.20;4.90;;;;;;;27.28;26.65;100422.06;108110;1253;73521;-67
2023/05/22 03:52:17;;;;;;;16.20;4.90;;;;;;;27.68;25.72;100424.39;107928;1253;68719;-68
2023/05/22 03:54:44;;;;;;;9.40;5.00;;;;;;;27.88;25.87;100426.52;107871;1253;74762;-68
2023/05/22 03:57:11;;;;;;;10.00;4.60;;;;;;;28.28;25.36;100429.86;108012;1253;62712;-67
2023/05/22 03:59:37;;;;;;;8.50;4.60;;;;;;;28.55;24.80;100430.27;107994;1253;62576;-67
2023/05/22 04:02:04;;;;;;;7.60;4.60;;;;;;;28.93;24.44;100430.35;107910;1253;75574;-70
2023/05/22 04:04:37;;;;;;;9.10;4.60;;;;;;;29.09;24.02;100426.30;107927;1253;70393;-66
2023/05/22 04:07:07;;;;;;;8.10;4.50;;;;;;;29.56;23.72;100425.98;108011;1253;71667;-68
2023/05/22 04:09:34;;;;;;;10.90;4.80;;;;;;;29.98;23.23;100418.67;108018;1253;62613;-67
2023/05/22 04:12:01;;;;;;;7.80;4.10;;;;;;;30.29;22.58;100421.65;108132;1253;61404;-67
2023/05/22 04:14:28;;;;;;;11.10;4.80;;;;;;;30.62;22.31;100423.58;107880;1253;75095;-68
2023/05/22 04:16:55;;;;;;;7.60;4.00;;;;;;;30.72;21.97;100423.69;107991;1253;72305;-68
2023/05/22 04:19:21;;;;;;;9.40;4.30;;;;;;;31.00;21.79;100418.60;108028;1253;74616;-68
2023/05/22 04:21:49;;;;;;;10.50;4.20;;;;;;;31.30;21.64;100412.90;107862;1253;62538;-69
2023/05/22 04:24:17;;;;;;;10.30;3.80;;;;;;;31.41;21.32;100411.91;108035;1253;60342;-67
2023/05/22 04:26:44;;;;;;;7.10;3.90;;;;;;;31.46;21.19;100408.91;108090;1253;75915;-67
2023/05/22 04:29:13;;;;;;;9.30;4.10;;;;;;;31.70;20.92;100410.22;108074;1253;72294;-66
2023/05/22 04:31:40;;;;;;;10.30;3.70;;;;;;;31.71;20.95;100411.15;108091;1252;71766;-66
2023/05/22 04:34:14;;;;;;;7.80;3.90;;;;;;;32.17;20.54;100406.79;108041;1253;60416;-67
2023/05/22 04:36:43;;;;;;;6.60;3.60;;;;;;;31.94;20.42;100406.48;108059;1253;62695;-67
2023/05/22 04:39:12;;;;;;;5.10;3.70;;;;;;;32.08;20.25;100402.63;108122;1253;75885;-67
2023/05/22 04:41:39;;;;;;;8.10;3.80;;;;;;;32.61;19.85;100401.45;108120;1253;71265;-67
2023/05/22 04:44:06;;;;;;;7.70;3.40;;;;;;;32.68;19.62;100401.77;108202;1253;74506;-68
2023/05/22 04:46:34;;;;;;;7.00;3.60;;;;;;;32.93;19.69;100404.56;108176;1258;62413;-67
2023/05/22 04:49:02;;;;;;;9.00;3.50;;;;;;;33.22;19.41;100405.74;108098;1253;61819;-67
2023/05/22 04:51:30;;;;;;;6.20;4.20;;;;;;;33.44;19.15;100398.55;108036;1253;74960;-67
2023/05/22 04:53:57;;;;;;;10.20;3.70;;;;;;;33.73;18.91;100398.38;108126;1252;69160;-66
2023/05/22 04:56:24;;;;;;;11.00;4.10;;;;;;;33.75;18.45;100401.20;108056;1252;72943;-68
2023/05/22 04:59:04;;;;;;;7.40;3.60;;;;;;;33.87;18.07;100401.30;108073;1253;60740;-66
2023/05/22 05:01:33;;;;;;;10.10;4.00;;;;;;;33.70;18.07;100404.08;107952;1252;62526;-67
2023/05/22 05:04:01;;;;;;;10.30;3.80;;;;;;;33.56;18.06;100402.05;108111;1253;73939;-65
2023/05/22 05:06:29;;;;;;;14.80;4.00;;;;;;;33.76;18.12;100403.06;108130;1253;72407;-67
2023/05/22 05:08:55;;;;;;;12.40;4.20;;;;;;;33.93;18.01;100401.05;108105;1253;74471;-68
2023/05/22 05:11:23;;;;;;;11.70;3.80;;;;;;;34.32;17.67;100400.57;108009;1254;62535;-68
2023/05/22 05:13:50;;;;;;;11.00;3.90;;;;;;;34.37;17.63;100401.19;108180;1252;62404;-69
2023/05/22 05:16:18;;;;;;;13.00;4.60;;;;;;;34.55;17.62;100402.77;108158;1253;75346;-67
2023/05/22 05:18:45;;;;;;;13.00;4.30;;;;;;;34.98;17.18;100403.02;108171;1253;64173;-68
2023/05/22 05:21:11;;;;;;;10.10;3.70;;;;;;;35.09;17.06;100401.77;107985;1253;65989;-69
2023/05/22 05:23:38;;;;;;;15.00;4.40;;;;;;;34.80;17.27;100403.85;108111;1254;60441;-67
2023/05/22 05:26:07;;;;;;;20.00;4.00;;;;;;;34.75;17.58;100406.12;108096;1253;60319;-68
2023/05/22 05:28:36;;;;;;;14.10;4.00;;;;;;;34.77;17.21;100409.38;108044;1253;67075;-68
2023/05/22 05:31:04;;;;;;;20.40;4.40;;;;;;;34.67;17.20;100407.63;107919;1253;63620;-68
2023/05/22 05:34:06;;;;;;;11.80;4.10;;;;;;;34.86;17.53;100409.21;107404;1261;64977;-67
2023/05/22 05:36:51;;;;;;;10.60;4.00;;;;;;;34.63;17.20;100413.91;107890;1254;60486;-68
2023/05/22 05:39:20;;;;;;;10.60;4.10;;;;;;;34.63;17.31;100414.13;108085;1253;60909;-68
2023/05/22 05:41:48;;;;;;;12.40;4.30;;;;;;;34.74;17.54;100411.93;107999;1253;75986;-68
2023/05/22 05:44:15;;;;;;;6.80;4.00;;;;;;;34.63;17.47;100414.70;108137;1253;62677;-69
2023/05/22 05:46:42;;;;;;;6.00;3.50;;;;;;;34.86;17.32;100410.55;107985;1253;75283;-68
2023/05/22 05:49:15;;;;;;;6.40;3.80;;;;;;;35.21;17.32;100408.80;107923;1253;60486;-68
2023/05/22 05:51:42;;;;;;;6.90;3.80;;;;;;;35.49;17.12;100407.64;107946;1253;60808;-69
2023/05/22 05:54:10;;;;;;;8.80;3.60;;;;;;;35.54;16.84;100404.98;108025;1253;67004;-67
2023/05/22 05:56:37;;;;;;;12.00;4.00;;;;;;;35.46;17.03;100401.33;108062;1253;60666;-66
2023/05/22 05:59:04;;;;;;;8.20;3.80;;;;;;;35.47;17.01;100403.77;108061;1258;66002;-68
2023/05/22 06:01:38;;;;;;;9.10;3.90;;;;;;;35.46;17.15;100404.44;108070;1256;59708;-69
2023/05/22 06:04:09;;;;;;;8.80;3.60;;;;;;;35.36;17.33;100402.02;108017;1253;60368;-70
2023/05/22 06:06:38;;;;;;;7.90;4.00;;;;;;;35.61;16.99;100398.23;107931;1253;67136;-69
2023/05/22 06:09:13;;;;;;;5.30;3.40;;;;;;;35.84;16.73;100397.92;108027;1253;63589;-68
2023/05/22 06:12:11;;;;;;;7.30;3.80;;;;;;;36.23;16.78;100393.13;107974;1257;65249;-67
2023/05/22 06:14:40;;;;;;;9.20;4.10;;;;;;;36.42;16.67;100392.58;107998;1253;60284;-69
2023/05/22 06:17:09;;;;;;;7.30;3.90;;;;;;;36.77;16.42;100391.09;108105;1252;60457;-68
2023/05/22 06:19:38;;;;;;;7.20;3.50;;;;;;;37.02;16.24;100392.80;108102;1252;66179;-68
2023/05/22 06:22:05;;;;;;;9.30;3.60;;;;;;;37.22;15.98;100391.23;108091;1259;63776;-69
2023/05/22 06:24:32;;;;;;;11.90;4.10;;;;;;;37.50;16.08;100389.91;108070;1253;65865;-67
2023/05/22 06:27:04;;;;;;;7.20;3.70;;;;;;;37.93;15.68;100389.23;107854;1253;60339;-70
2023/05/22 06:29:31;;;;;;;6.30;3.70;;;;;;;38.12;15.34;100388.54;108042;1253;60346;-68
2023/05/22 06:31:58;;;;;;;13.40;4.30;;;;;;;38.28;15.58;100390.01;108019;1259;67315;-69
2023/05/22 06:34:26;;;;;;;8.80;2.90;;;;;;;38.16;15.15;100386.88;108006;1253;63819;-69
2023/05/22 06:36:55;;;;;;;12.00;3.40;;;;;;;38.06;15.00;100384.28;107912;1259;65999;-69
2023/05/22 06:39:23;;;;;;;8.80;2.90;;;;;;;38.24;15.08;100386.65;107994;1253;60255;-69
2023/05/22 06:42:05;;;;;;;9.90;3.00;;;;;;;38.14;15.10;100388.24;107981;1253;60326;-68
2023/05/22 06:44:52;;;;;;;4.50;3.20;;;;;;;37.92;15.03;100383.40;107956;1253;66112;-69
2023/05/22 06:47:19;;;;;;;5.90;3.10;;;;;;;38.04;15.20;100379.04;107957;1253;63980;-68
2023/05/22 06:49:46;;;;;;;6.00;3.30;;;;;;;38.21;15.02;100380.63;107942;1260;66321;-68
2023/05/22 06:52:14;;;;;;;5.30;2.80;;;;;;;37.88;14.76;100381.77;107943;1253;60238;-69
2023/05/22 06:54:42;;;;;;;8.40;3.20;;;;;;;37.49;15.01;100382.02;107935;1253;58699;-70
2023/05/22 06:57:10;;;;;;;6.40;3.00;;;;;;;37.49;15.40;100381.72;107934;1253;66292;-69
2023/05/22 06:59:37;;;;;;;5.20;2.60;;;;;;;37.53;15.42;100376.64;108028;1253;62276;-70
2023/05/22 07:02:05;;;;;;;4.20;2.60;;;;;;;37.80;15.15;100376.35;107920;1252;66048;-69
2023/05/22 07:04:51;;;;;;;9.50;2.80;;;;;;;38.12;14.75;100377.18;108019;1253;60383;-69
2023/05/22 07:07:35;;;;;;;6.00;2.60;;;;;;;37.92;14.60;100372.15;108016;1253;60326;-69
2023/05/22 07:10:02;;;;;;;7.10;2.50;;;;;;;37.62;14.83;100370.00;108039;1253;65880;-70
2023/05/22 07:12:30;;;;;;;5.90;2.60;;;;;;;37.68;15.07;100371.67;107964;1253;64292;-68
2023/05/22 07:14:59;;;;;;;5.30;2.50;;;;;;;38.14;14.94;100372.63;107972;1256;65773;-68
2023/05/22 07:17:26;;;;;;;5.70;2.80;;;;;;;38.76;14.61;100373.30;107959;1253;60438;-69
2023/05/22 07:19:55;;;;;;;7.10;2.40;;;;;;;39.13;14.12;100373.05;108061;1253;61749;-70
2023/05/22 07:22:22;;;;;;;6.20;2.30;;;;;;;38.68;14.10;100372.38;108027;1253;67147;-69
2023/05/22 07:24:49;;;;;;;5.90;2.60;;;;;;;38.28;14.43;100373.35;107976;1253;63638;-68
2023/05/22 07:27:16;;;;;;;6.30;2.50;;;;;;;38.54;14.29;100370.85;107952;1253;66171;-70
2023/05/22 07:29:44;;;;;;;10.40;2.70;;;;;;;38.44;14.19;100369.04;108198;1254;61127;-70
2023/05/22 07:32:11;;;;;;;4.00;2.40;;;;;;;38.10;14.50;100367.40;108033;1253;60281;-68
2023/05/22 07:34:40;;;;;;;4.80;2.60;;;;;;;38.04;14.63;100366.84;108081;1253;66990;-67
2023/05/22 07:37:07;;;;;;;4.90;2.30;;;;;;;37.96;15.04;100368.77;107934;1260;63718;-68
2023/05/22 07:39:34;;;;;;;4.80;2.40;;;;;;;37.85;14.60;100370.96;107847;1253;245706;-69
2023/05/22 07:43:11;;;;;;;5.20;2.40;;;;;;;35.31;16.31;100369.33;104830;1292;601118;-68
2023/05/22 07:45:39;;;;;;;7.00;2.40;;;;;;;36.76;15.28;100364.49;107222;1267;59128;-68
2023/05/22 07:48:07;;;;;;;7.50;3.00;;;;;;;36.97;15.30;100361.88;107248;1267;59136;-69
2023/05/22 07:50:35;;;;;;;4.60;2.20;;;;;;;37.15;15.31;100359.45;107335;1267;65602;-69
2023/05/22 07:53:03;;;;;;;3.40;2.10;;;;;;;37.74;15.08;100358.18;107302;1267;63993;-69
2023/05/22 07:55:31;;;;;;;6.60;2.10;;;;;;;38.08;14.38;100362.23;107265;1267;66006;-70
2023/05/22 07:57:58;;;;;;;5.80;1.80;;;;;;;38.10;14.30;100362.29;107178;1264;262164;-70
2023/05/22 08:00:31;;;;;;;6.00;1.90;;;;;;;38.16;14.04;100359.92;107358;1263;59275;-70
2023/05/22 08:02:58;;;;;;;9.20;2.10;;;;;;;37.94;14.36;100354.50;107417;1264;66240;-70
2023/05/22 08:05:25;;;;;;;6.50;2.00;;;;;;;37.90;14.19;100348.45;107552;1260;63826;-69
2023/05/22 08:07:53;;;;;;;5.40;1.80;;;;;;;38.31;13.85;100348.89;107608;1260;66226;-69
2023/05/22 08:10:20;;;;;;;3.50;2.00;;;;;;;38.45;13.66;100351.35;107596;1265;59220;-70
2023/05/22 08:12:47;;;;;;;2.30;1.80;;;;;;;38.46;13.80;100348.36;107556;1265;59622;-69
2023/05/22 08:15:14;;;;;;;4.60;2.00;;;;;;;38.85;13.78;100350.10;107564;1260;66362;-68
2023/05/22 08:17:41;;;;;;;2.90;1.80;;;;;;;39.37;13.55;100345.70;107458;1260;62520;-69
2023/05/22 08:20:08;;;;;;;8.60;2.30;;;;;;;39.49;13.30;100337.85;108041;1256;65913;-69
2023/05/22 08:22:37;;;;;;;5.20;1.90;;;;;;;39.51;12.78;100347.98;107991;1257;59800;-69
2023/05/22 08:25:04;;;;;;;5.40;1.70;;;;;;;39.16;12.75;100355.13;107936;1256;59351;-68
2023/05/22 08:27:32;;;;;;;11.50;2.00;;;;;;;39.10;12.79;100353.73;107868;1256;66496;-70
2023/05/22 08:29:58;;;;;;;3.10;1.90;;;;;;;39.10;12.67;100349.08;107920;1257;62804;-70
2023/05/22 08:32:25;;;;;;;8.00;2.10;;;;;;;38.89;12.69;100346.77;107840;1257;66250;-69
2023/05/22 08:34:55;;;;;;;15.60;1.90;;;;;;;38.57;12.93;100352.02;107878;1257;59139;-70
2023/05/22 08:37:22;;;;;;;3.30;1.90;;;;;;;38.75;13.24;100347.06;107865;1257;59449;-70
2023/05/22 08:39:49;;;;;;;4.70;1.80;;;;;;;39.23;13.02;100347.01;107844;1257;66499;-69
2023/05/22 08:42:15;;;;;;;4.80;1.90;;;;;;;39.59;12.51;100342.36;107808;1257;63700;-70
2023/05/22 08:44:42;;;;;;;3.80;1.90;;;;;;;39.73;12.15;100344.65;107748;1257;66261;-69
2023/05/22 08:47:09;;;;;;;4.20;1.90;;;;;;;39.96;11.93;100342.70;107862;1257;59663;-69
2023/05/22 08:49:37;;;;;;;7.40;1.80;;;;;;;40.07;11.55;100341.94;107944;1257;59260;-68
2023/05/22 08:52:20;;;;;;;4.20;1.90;;;;;;;39.94;11.72;100343.16;107645;1256;65426;-69
2023/05/22 08:54:52;;;;;;;5.50;1.60;;;;;;;39.90;12.00;100347.06;107756;1257;63741;-67
2023/05/22 08:57:19;;;;;;;2.30;1.50;;;;;;;40.00;11.90;100345.48;107830;1257;64992;-70
2023/05/22 08:59:46;;;;;;;2.80;1.70;;;;;;;40.40;11.49;100337.42;107825;1257;59125;-69
2023/05/22 09:02:13;;;;;;;3.20;1.80;;;;;;;40.78;11.29;100334.05;107764;1257;59666;-68
2023/05/22 09:04:40;;;;;;;2.20;1.70;;;;;;;40.65;10.98;100332.57;107921;1257;66540;-69
2023/05/22 09:07:07;;;;;;;4.90;1.60;;;;;;;40.35;11.39;100334.57;107735;1257;62683;-68
2023/05/22 09:09:37;;;;;;;6.80;1.70;;;;;;;39.80;11.68;100332.11;107846;1257;65866;-69
2023/05/22 09:12:07;;;;;;;4.60;1.80;;;;;;;39.40;12.15;100329.61;107762;1257;59519;-69
2023/05/22 09:14:39;;;;;;;6.40;1.70;;;;;;;39.65;12.14;100336.54;107751;1257;59727;-69
2023/05/22 09:17:08;;;;;;;9.00;1.90;;;;;;;39.80;11.99;100335.77;107651;1256;66681;-70
2023/05/22 09:19:35;;;;;;;6.00;1.90;;;;;;;39.62;12.40;100333.23;107859;1257;64010;-70
2023/05/22 09:22:03;;;;;;;4.80;2.20;;;;;;;40.18;12.03;100324.80;107720;1257;66048;-69
2023/05/22 09:24:31;;;;;;;4.80;1.70;;;;;;;40.52;11.68;100326.33;107804;1256;59555;-68
2023/05/22 09:27:02;;;;;;;5.40;1.60;;;;;;;41.03;11.49;100327.83;107886;1257;59705;-69
2023/05/22 09:29:28;;;;;;;7.50;2.20;;;;;;;41.08;11.55;100326.57;107719;1256;66423;-68
2023/05/22 09:31:58;;;;;;;4.40;1.80;;;;;;;41.45;11.44;100324.52;107849;1256;62653;-70
2023/05/22 09:34:28;;;;;;;6.20;1.70;;;;;;;41.73;10.98;100321.27;107772;1262;66371;-69
2023/05/22 09:37:05;;;;;;;5.10;1.70;;;;;;;41.37;10.96;100318.05;107767;1257;59419;-70
2023/05/22 09:39:42;;;;;;;5.90;1.70;;;;;;;40.68;11.18;100322.40;107785;1257;59878;-70
2023/05/22 09:42:11;;;;;;;7.20;1.70;;;;;;;40.58;11.38;100321.95;107857;1256;66331;-70
2023/05/22 09:44:38;;;;;;;6.20;1.80;;;;;;;40.23;11.71;100319.73;107795;1257;63825;-70
2023/05/22 09:47:05;;;;;;;3.40;1.60;;;;;;;40.06;11.91;100312.35;107769;1260;64782;-70
2023/05/22 09:49:41;;;;;;;6.30;2.00;;;;;;;39.64;12.08;100317.23;107759;1256;59118;-69
2023/05/22 09:52:08;;;;;;;4.10;1.80;;;;;;;39.39;12.09;100314.89;107747;1256;59673;-70
2023/05/22 09:54:35;;;;;;;6.00;1.80;;;;;;;39.82;11.97;100306.80;107730;1256;66454;-70
2023/05/22 09:57:03;;;;;;;3.50;1.70;;;;;;;40.30;11.57;100304.64;107723;1256;62717;-69
2023/05/22 09:59:31;;;;;;;6.90;1.80;;;;;;;40.75;11.42;100301.81;107626;1256;66266;-70
2023/05/22 10:02:00;;;;;;;3.90;1.70;;;;;;;41.22;11.28;100297.27;107604;1256;58780;-69
2023/05/22 10:04:29;;;;;;;4.10;1.60;;;;;;;41.22;11.05;100298.95;107795;1262;59127;-70
2023/05/22 10:06:56;;;;;;;6.00;2.10;;;;;;;40.93;11.17;100300.55;107749;1262;66485;-70
2023/05/22 10:09:25;;;;;;;5.40;1.80;;;;;;;40.17;11.55;100305.30;107665;1256;62534;-70
2023/05/22 10:11:52;;;;;;;5.10;1.80;;;;;;;39.74;11.62;100302.05;107757;1257;66184;-70
2023/05/22 10:14:19;;;;;;;3.20;1.80;;;;;;;40.10;11.64;100290.95;107770;1257;59541;-69
2023/05/22 10:16:46;;;;;;;4.20;1.70;;;;;;;40.36;11.63;100285.64;107596;1257;59555;-70
2023/05/22 10:19:13;;;;;;;3.50;1.80;;;;;;;40.69;11.69;100281.85;107653;1256;66195;-70
2023/05/22 10:21:40;;;;;;;5.00;1.60;;;;;;;40.93;11.57;100278.70;107759;1257;62545;-69
2023/05/22 10:24:07;;;;;;;6.90;2.20;;;;;;;41.55;11.37;100278.98;107791;1256;65071;-69
2023/05/22 10:26:33;;;;;;;4.50;1.80;;;;;;;41.88;11.10;100279.14;107710;1257;59630;-69
2023/05/22 10:29:11;;;;;;;2.70;1.60;;;;;;;42.01;10.95;100284.16;107598;1257;59668;-69
2023/05/22 10:31:59;;;;;;;5.40;1.80;;;;;;;42.30;10.95;100282.56;107734;1257;66350;-69
2023/05/22 10:34:37;;;;;;;6.00;2.10;;;;;;;42.36;10.70;100280.02;107530;1256;63866;-69
2023/05/22 10:37:25;;;;;;;5.90;1.70;;;;;;;41.86;10.49;100277.63;107874;1257;66277;-71
2023/05/22 10:40:10;;;;;;;8.10;2.40;;;;;;;41.23;10.77;100281.20;107843;1257;59644;-70
2023/05/22 10:42:37;;;;;;;5.50;1.80;;;;;;;40.83;11.17;100277.64;107933;1257;59422;-69
2023/05/22 10:45:08;;;;;;;6.00;1.90;;;;;;;40.94;11.17;100273.56;107909;1260;65327;-69
2023/05/22 10:47:35;;;;;;;8.20;1.70;;;;;;;41.37;11.07;100276.08;107870;1257;63770;-69
2023/05/22 10:50:09;;;;;;;5.90;1.90;;;;;;;41.74;10.95;100274.29;107675;1257;66439;-69
2023/05/22 10:52:37;;;;;;;3.80;2.10;;;;;;;41.58;10.64;100272.27;107876;1257;59547;-69
2023/05/22 10:55:08;;;;;;;2.20;1.60;;;;;;;41.19;10.70;100269.06;107801;1257;60800;-70
2023/05/22 10:57:38;;;;;;;4.70;1.90;;;;;;;41.18;10.67;100268.79;107839;1257;65293;-69
2023/05/22 11:00:10;;;;;;;7.70;2.00;;;;;;;40.94;10.62;100264.02;107751;1257;63477;-69
2023/05/22 11:02:39;;;;;;;4.00;2.00;;;;;;;40.94;10.90;100257.48;107797;1258;65073;-69
2023/05/22 11:05:21;;;;;;;7.60;2.00;;;;;;;41.22;10.67;100253.86;107850;1256;59521;-69
2023/05/22 11:07:48;;;;;;;5.00;1.40;;;;;;;40.99;10.55;100260.54;107905;1257;61764;-70
2023/05/22 11:10:44;;;;;;;7.00;2.00;;;;;;;40.75;10.78;100255.00;107864;1257;65209;-70
2023/05/22 11:13:11;;;;;;;4.10;1.80;;;;;;;40.62;11.08;100249.73;107722;1260;62777;-69
2023/05/22 11:15:42;;;;;;;8.00;2.20;;;;;;;40.71;10.97;100248.66;107900;1257;65064;-68
2023/05/22 11:18:10;;;;;;;4.50;1.90;;;;;;;40.89;10.91;100244.99;107708;1257;59528;-67
2023/05/22 11:20:38;;;;;;;4.00;1.70;;;;;;;40.86;10.64;100239.54;107707;1257;59550;-70
2023/05/22 11:23:06;;;;;;;3.80;1.50;;;;;;;39.77;11.29;100242.34;107695;1257;66524;-69
2023/05/22 11:25:34;;;;;;;6.60;1.70;;;;;;;40.41;11.33;100242.14;107879;1261;64409;-70
2023/05/22 11:28:05;;;;;;;8.70;1.70;;;;;;;40.34;11.04;100243.24;107952;1263;66056;-70
2023/05/22 11:30:32;;;;;;;3.00;1.70;;;;;;;40.22;10.91;100242.86;107848;1261;59560;-69